Time;durP1;ratioP1;P1;durP2;ratioP2;P2;SDS_P1;SDS_P2;PMS_P1;PMS_P2;Temp;Humidity;BMP_temperature;BMP_pressure;BME280_temperature;BME280_humidity;BME280_pressure;Samples;Min_cycle;Max_cycle;Signal;HPM_P1;HPM_P2
2022/06/13 00:01:15;;;;;;;;;;;11.90;99.90;;;;;;5013180;28;19909;-75
2022/06/13 00:03:41;;;;;;;;;;;11.90;99.90;;;;;;5013192;28;19917;-74
2022/06/13 00:06:08;;;;;;;;;;;12.00;99.90;;;;;;5013036;28;20004;-73
2022/06/13 00:08:35;;;;;;;;;;;12.00;99.90;;;;;;5013035;28;20008;-74
2022/06/13 00:11:02;;;;;;;;;;;12.00;99.90;;;;;;5013335;28;20325;-75
2022/06/13 00:13:29;;;;;;;;;;;12.00;99.90;;;;;;5013056;28;19914;-74
2022/06/13 00:15:55;;;;;;;;;;;12.10;99.90;;;;;;5013101;28;19909;-76
2022/06/13 00:18:24;;;;;;;;;;;12.00;99.90;;;;;;5012987;28;20288;-74
2022/06/13 00:20:51;;;;;;;;;;;12.20;99.90;;;;;;5012934;28;20307;-74
2022/06/13 00:23:17;;;;;;;;;;;12.20;99.90;;;;;;5013020;28;19935;-74
2022/06/13 00:25:44;;;;;;;;;;;12.30;99.90;;;;;;5012693;28;19916;-74
2022/06/13 00:28:11;;;;;;;;;;;12.30;99.90;;;;;;5012471;28;19966;-74
2022/06/13 00:30:38;;;;;;;;;;;12.30;99.90;;;;;;5012720;28;19949;-74
2022/06/13 00:33:04;;;;;;;;;;;12.40;99.90;;;;;;5012824;28;19910;-77
2022/06/13 00:35:31;;;;;;;;;;;12.50;99.90;;;;;;5012747;28;20247;-76
2022/06/13 00:37:58;;;;;;;;;;;12.60;99.90;;;;;;5012565;28;19921;-76
2022/06/13 00:40:25;;;;;;;;;;;12.70;99.90;;;;;;5012656;28;19910;-76
2022/06/13 00:42:51;;;;;;;;;;;12.70;99.90;;;;;;5012432;28;19916;-76
2022/06/13 00:45:18;;;;;;;;;;;12.70;99.90;;;;;;5012525;28;19910;-74
2022/06/13 00:47:46;;;;;;;;;;;12.80;99.90;;;;;;5012212;28;20288;-74
2022/06/13 00:50:20;;;;;;;;;;;12.80;99.90;;;;;;5012738;28;19916;-76
2022/06/13 00:52:49;;;;;;;;;;;12.90;99.90;;;;;;5012378;28;19921;-76
2022/06/13 00:55:18;;;;;;;;;;;12.90;99.90;;;;;;5012287;28;19958;-77
2022/06/13 00:57:45;;;;;;;;;;;12.90;99.90;;;;;;5012246;28;19917;-77
2022/06/13 01:00:15;;;;;;;;;;;13.10;99.90;;;;;;5012515;28;19910;-78
2022/06/13 01:02:44;;;;;;;;;;;13.30;99.90;;;;;;5012533;28;19916;-77
2022/06/13 01:05:14;;;;;;;;;;;13.50;99.90;;;;;;5012311;28;19909;-78
2022/06/13 01:07:41;;;;;;;;;;;13.70;99.90;;;;;;5012257;28;19924;-78
2022/06/13 01:12:53;;;;;;;;;;;14.10;99.90;;;;;;5015451;28;19916;-78
2022/06/13 01:15:36;;;;;;;;;;;14.20;99.90;;;;;;5016304;28;19909;-78
2022/06/13 01:18:08;;;;;;;;;;;14.50;99.90;;;;;;5016124;28;19988;-78
2022/06/13 01:20:35;;;;;;;;;;;14.60;99.90;;;;;;5016205;28;20057;-77
2022/06/13 01:23:13;;;;;;;;;;;14.40;99.90;;;;;;5016047;28;19910;-78
2022/06/13 01:25:49;;;;;;;;;;;14.20;99.90;;;;;;5015849;28;20063;-77
2022/06/13 01:28:22;;;;;;;;;;;14.10;99.90;;;;;;5015982;28;19925;-79
2022/06/13 01:31:02;;;;;;;;;;;13.90;99.90;;;;;;5015952;28;20350;-77
2022/06/13 01:33:35;;;;;;;;;;;14.00;99.90;;;;;;5015894;28;20283;-78
2022/06/13 01:36:13;;;;;;;;;;;14.00;99.90;;;;;;5015885;28;20387;-78
2022/06/13 01:39:02;;;;;;;;;;;14.00;99.90;;;;;;5015765;28;19957;-77
2022/06/13 01:41:34;;;;;;;;;;;14.00;99.90;;;;;;5015767;28;19917;-78
2022/06/13 01:44:11;;;;;;;;;;;13.90;99.90;;;;;;5015683;28;19909;-78
2022/06/13 01:46:40;;;;;;;;;;;14.00;99.90;;;;;;5015574;28;19909;-77
2022/06/13 01:49:22;;;;;;;;;;;14.00;99.90;;;;;;5015496;28;19917;-78
2022/06/13 01:51:52;;;;;;;;;;;14.00;99.90;;;;;;5015203;28;19909;-79
2022/06/13 01:54:23;;;;;;;;;;;13.90;99.90;;;;;;5015728;28;19967;-79
2022/06/13 01:56:57;;;;;;;;;;;13.90;99.90;;;;;;5015584;28;20316;-79
2022/06/13 01:59:28;;;;;;;;;;;13.80;99.90;;;;;;5015391;28;19910;-78
2022/06/13 02:02:03;;;;;;;;;;;13.80;99.90;;;;;;5015278;28;20225;-79
2022/06/13 02:04:34;;;;;;;;;;;13.70;99.90;;;;;;5015379;28;19917;-79
2022/06/13 02:07:04;;;;;;;;;;;13.80;99.90;;;;;;5015251;28;19971;-79
2022/06/13 02:09:34;;;;;;;;;;;13.80;99.90;;;;;;5015020;28;19909;-78
2022/06/13 02:12:01;;;;;;;;;;;13.90;99.90;;;;;;5015075;28;19956;-78
2022/06/13 02:14:37;;;;;;;;;;;13.90;99.90;;;;;;5015088;28;19983;-78
2022/06/13 02:17:17;;;;;;;;;;;14.00;99.90;;;;;;5014973;28;20421;-77
2022/06/13 02:20:02;;;;;;;;;;;13.90;99.90;;;;;;5015015;28;20394;-78
2022/06/13 02:22:47;;;;;;;;;;;13.90;99.90;;;;;;5013590;28;19913;-78
2022/06/13 02:25:22;;;;;;;;;;;14.10;99.90;;;;;;5015061;28;19910;-78
2022/06/13 02:27:55;;;;;;;;;;;14.10;99.90;;;;;;5014472;28;20028;-78
2022/06/13 02:30:25;;;;;;;;;;;14.10;99.90;;;;;;5015014;28;19924;-78
2022/06/13 02:33:05;;;;;;;;;;;14.20;99.90;;;;;;5014757;28;19914;-78
2022/06/13 02:35:37;;;;;;;;;;;14.10;99.90;;;;;;5014409;28;19996;-77
2022/06/13 02:38:07;;;;;;;;;;;14.30;99.90;;;;;;5014815;28;19910;-78
2022/06/13 02:40:46;;;;;;;;;;;14.30;99.90;;;;;;5014635;28;19996;-77
2022/06/13 02:43:33;;;;;;;;;;;14.40;99.90;;;;;;5014543;28;19963;-77
2022/06/13 02:46:03;;;;;;;;;;;14.30;99.90;;;;;;5014569;28;20284;-79
2022/06/13 02:48:41;;;;;;;;;;;14.20;99.90;;;;;;5014735;28;19921;-78
2022/06/13 02:51:26;;;;;;;;;;;14.20;99.90;;;;;;5014358;28;19992;-79
2022/06/13 02:53:52;;;;;;;;;;;14.10;99.90;;;;;;5014007;28;19925;-78
2022/06/13 02:56:19;;;;;;;;;;;14.20;99.90;;;;;;5014379;28;19909;-78
2022/06/13 02:58:55;;;;;;;;;;;14.10;99.90;;;;;;5014266;28;19921;-78
2022/06/13 03:01:25;;;;;;;;;;;14.10;99.90;;;;;;5014212;28;19913;-78
2022/06/13 03:03:54;;;;;;;;;;;14.30;99.90;;;;;;5014155;28;19916;-78
2022/06/13 03:06:21;;;;;;;;;;;14.20;99.90;;;;;;5014211;28;20347;-77
2022/06/13 03:08:59;;;;;;;;;;;14.10;99.90;;;;;;5014018;28;19921;-77
2022/06/13 03:11:32;;;;;;;;;;;14.10;99.90;;;;;;5014096;28;19913;-76
2022/06/13 03:14:01;;;;;;;;;;;14.10;99.90;;;;;;5014107;28;19920;-76
2022/06/13 03:16:41;;;;;;;;;;;14.10;99.90;;;;;;5014085;28;19910;-78
2022/06/13 03:19:13;;;;;;;;;;;14.10;99.90;;;;;;5014092;28;19941;-77
2022/06/13 03:21:44;;;;;;;;;;;14.30;99.90;;;;;;5013880;28;19948;-76
2022/06/13 03:24:34;;;;;;;;;;;14.30;99.90;;;;;;5013897;28;19910;-77
2022/06/13 03:27:23;;;;;;;;;;;14.30;99.90;;;;;;5013602;28;20000;-78
2022/06/13 03:29:56;;;;;;;;;;;14.20;99.90;;;;;;5010743;28;19914;-78
2022/06/13 03:32:28;;;;;;;;;;;14.20;99.90;;;;;;5013787;28;19931;-77
2022/06/13 03:34:58;;;;;;;;;;;14.50;99.90;;;;;;5013020;28;19910;-78
2022/06/13 03:37:36;;;;;;;;;;;14.40;99.90;;;;;;5013525;28;19964;-78
2022/06/13 03:40:05;;;;;;;;;;;14.40;99.90;;;;;;5013604;28;19916;-76
2022/06/13 03:42:34;;;;;;;;;;;14.40;99.90;;;;;;5013427;28;19917;-78
2022/06/13 03:45:06;;;;;;;;;;;14.40;99.70;;;;;;5013606;28;19913;-76
2022/06/13 03:47:33;;;;;;;;;;;14.40;99.50;;;;;;5013173;28;19917;-77
2022/06/13 03:50:29;;;;;;;;;;;14.30;99.70;;;;;;5013367;28;19910;-75
2022/06/13 03:53:02;;;;;;;;;;;14.30;99.70;;;;;;5008614;28;19917;-77
2022/06/13 03:55:45;;;;;;;;;;;14.40;99.30;;;;;;5013305;28;19909;-77
2022/06/13 03:58:14;;;;;;;;;;;14.40;99.30;;;;;;5013361;28;19916;-77
2022/06/13 04:00:44;;;;;;;;;;;14.30;99.90;;;;;;5013457;28;19909;-78
2022/06/13 04:03:11;;;;;;;;;;;14.20;99.40;;;;;;5028571;28;20359;-77
2022/06/13 04:05:42;;;;;;;;;;;14.10;99.70;;;;;;5013122;28;20000;-78
2022/06/13 04:08:10;;;;;;;;;;;14.10;99.60;;;;;;5013131;28;19928;-77
2022/06/13 04:10:52;;;;;;;;;;;14.10;99.60;;;;;;5013235;28;19909;-78
2022/06/13 04:13:23;;;;;;;;;;;14.20;99.20;;;;;;5013011;28;19921;-75
2022/06/13 04:15:56;;;;;;;;;;;14.20;99.90;;;;;;5013001;28;20013;-75
2022/06/13 04:18:34;;;;;;;;;;;14.30;99.70;;;;;;5013040;28;19910;-76
2022/06/13 04:21:21;;;;;;;;;;;14.20;99.50;;;;;;5013062;28;19947;-78
2022/06/13 04:23:52;;;;;;;;;;;14.20;99.70;;;;;;5012729;28;19948;-77
2022/06/13 04:26:21;;;;;;;;;;;14.30;99.90;;;;;;5012782;28;20513;-76
2022/06/13 04:28:57;;;;;;;;;;;14.20;99.90;;;;;;5012885;28;19924;-78
2022/06/13 04:31:24;;;;;;;;;;;14.20;99.90;;;;;;5012886;28;19910;-75
2022/06/13 04:33:59;;;;;;;;;;;14.10;99.90;;;;;;5012601;28;19997;-77
2022/06/13 04:36:26;;;;;;;;;;;13.90;99.90;;;;;;5012834;28;19916;-78
2022/06/13 04:38:54;;;;;;;;;;;14.10;99.90;;;;;;5012839;28;19910;-78
2022/06/13 04:41:25;;;;;;;;;;;14.00;99.90;;;;;;5012650;28;20403;-75
2022/06/13 04:43:54;;;;;;;;;;;14.10;99.90;;;;;;5012506;28;20415;-78
2022/06/13 04:46:22;;;;;;;;;;;14.10;99.80;;;;;;5012626;28;20368;-77
2022/06/13 04:48:51;;;;;;;;;;;14.20;99.90;;;;;;5012713;28;19925;-77
2022/06/13 04:51:20;;;;;;;;;;;14.10;99.90;;;;;;5012713;28;20411;-77
2022/06/13 04:54:02;;;;;;;;;;;14.10;99.90;;;;;;5012283;28;19921;-77
2022/06/13 04:56:29;;;;;;;;;;;14.10;99.90;;;;;;5012404;28;19909;-78
2022/06/13 04:58:57;;;;;;;;;;;14.10;99.90;;;;;;5012676;28;19932;-77
2022/06/13 05:01:50;;;;;;;;;;;14.10;99.90;;;;;;5012644;28;19909;-78
2022/06/13 05:04:25;;;;;;;;;;;14.10;99.90;;;;;;5011399;28;19984;-78
2022/06/13 05:06:56;;;;;;;;;;;14.10;99.90;;;;;;5012606;28;19913;-77
2022/06/13 05:09:23;;;;;;;;;;;14.10;99.90;;;;;;5012706;28;19914;-78
2022/06/13 05:11:53;;;;;;;;;;;14.10;99.90;;;;;;5012302;28;19960;-77
2022/06/13 05:14:19;;;;;;;;;;;14.10;99.90;;;;;;5012528;28;19913;-77
2022/06/13 05:17:02;;;;;;;;;;;14.20;99.90;;;;;;5012653;28;19913;-78
2022/06/13 05:19:47;;;;;;;;;;;14.20;99.90;;;;;;5027470;28;19909;-77
2022/06/13 05:22:32;;;;;;;;;;;14.20;99.90;;;;;;5012390;28;20262;-76
2022/06/13 05:25:04;;;;;;;;;;;14.20;99.90;;;;;;5012415;28;19913;-74
2022/06/13 05:27:31;;;;;;;;;;;14.10;99.90;;;;;;5011989;28;19917;-78
2022/06/13 05:29:58;;;;;;;;;;;14.00;99.90;;;;;;5012398;28;19985;-77
2022/06/13 05:32:25;;;;;;;;;;;14.10;99.90;;;;;;5020720;28;20276;-77
2022/06/13 05:34:52;;;;;;;;;;;14.10;99.90;;;;;;5032628;28;19909;-78
2022/06/13 05:37:19;;;;;;;;;;;14.00;99.90;;;;;;5032092;28;19928;-76
2022/06/13 05:39:46;;;;;;;;;;;14.00;99.90;;;;;;5032517;28;19947;-76
2022/06/13 05:42:13;;;;;;;;;;;14.00;99.90;;;;;;5032477;28;19910;-77
2022/06/13 05:44:41;;;;;;;;;;;14.00;99.90;;;;;;5031967;28;19917;-77
2022/06/13 05:47:16;;;;;;;;;;;14.00;99.90;;;;;;5014671;28;19935;-78
2022/06/13 05:49:43;;;;;;;;;;;13.90;99.90;;;;;;5032178;28;19963;-78
2022/06/13 05:52:11;;;;;;;;;;;14.00;99.90;;;;;;5032191;28;19932;-75
2022/06/13 05:54:38;;;;;;;;;;;13.90;99.90;;;;;;5032524;28;19939;-77
2022/06/13 05:57:05;;;;;;;;;;;13.90;99.90;;;;;;5032371;28;19909;-78
2022/06/13 05:59:31;;;;;;;;;;;13.80;99.90;;;;;;5035576;28;19913;-76
2022/06/13 06:01:58;;;;;;;;;;;13.80;99.90;;;;;;5035980;28;19932;-77
2022/06/13 06:04:25;;;;;;;;;;;13.70;99.90;;;;;;5035846;28;19940;-77
2022/06/13 06:06:52;;;;;;;;;;;13.70;99.90;;;;;;5034758;28;19918;-78
2022/06/13 06:09:18;;;;;;;;;;;13.60;99.90;;;;;;5035645;28;19920;-77
2022/06/13 06:11:45;;;;;;;;;;;13.60;99.90;;;;;;5035332;28;19909;-78
2022/06/13 06:14:13;;;;;;;;;;;13.50;99.90;;;;;;5035599;28;19913;-78
2022/06/13 06:16:39;;;;;;;;;;;13.40;99.90;;;;;;5035733;28;19917;-77
2022/06/13 06:19:06;;;;;;;;;;;13.40;99.90;;;;;;5035688;28;19909;-77
2022/06/13 06:21:33;;;;;;;;;;;13.40;99.90;;;;;;5035354;28;20352;-78
2022/06/13 06:23:59;;;;;;;;;;;13.30;99.90;;;;;;5035242;28;19920;-77
2022/06/13 06:26:27;;;;;;;;;;;13.30;99.90;;;;;;5035143;28;20010;-78
2022/06/13 06:28:54;;;;;;;;;;;13.30;99.90;;;;;;5035231;28;20386;-78
2022/06/13 06:31:21;;;;;;;;;;;13.30;99.90;;;;;;5034698;28;20021;-78
2022/06/13 06:33:47;;;;;;;;;;;13.20;99.90;;;;;;5034850;28;19909;-77
2022/06/13 06:36:14;;;;;;;;;;;13.20;99.90;;;;;;5035102;28;19949;-77
2022/06/13 06:38:41;;;;;;;;;;;13.10;99.90;;;;;;5035236;28;20352;-78
2022/06/13 06:41:07;;;;;;;;;;;13.10;99.90;;;;;;5035004;28;19909;-78
2022/06/13 06:43:35;;;;;;;;;;;13.00;99.90;;;;;;5035024;28;19963;-78
2022/06/13 06:46:01;;;;;;;;;;;13.00;99.90;;;;;;5035089;28;19915;-78
2022/06/13 06:48:28;;;;;;;;;;;13.00;99.90;;;;;;5017309;28;20249;-78
2022/06/13 06:50:55;;;;;;;;;;;12.90;99.90;;;;;;5033802;28;19967;-74
2022/06/13 06:53:23;;;;;;;;;;;12.90;99.90;;;;;;5000969;28;20016;-78
2022/06/13 07:01:20;;;;;;;;;;;12.80;99.90;;;;;;4993021;28;20312;-77
2022/06/13 07:03:47;;;;;;;;;;;12.80;99.90;;;;;;4992478;28;19921;-74
2022/06/13 07:06:15;;;;;;;;;;;12.70;99.90;;;;;;4993276;28;19921;-76
2022/06/13 07:08:43;;;;;;;;;;;12.70;99.90;;;;;;4991805;28;19926;-81
2022/06/13 07:13:57;;;;;;;;;;;12.70;99.90;;;;;;4993466;28;20284;-77
2022/06/13 07:16:24;;;;;;;;;;;12.60;99.90;;;;;;4993087;28;19917;-77
2022/06/13 07:18:51;;;;;;;;;;;12.60;99.90;;;;;;4992476;28;19914;-76
2022/06/13 07:21:17;;;;;;;;;;;12.50;99.90;;;;;;4992864;28;19925;-75
2022/06/13 07:23:44;;;;;;;;;;;12.50;99.90;;;;;;4992218;28;20008;-77
2022/06/13 07:26:11;;;;;;;;;;;12.50;99.90;;;;;;4992766;28;19910;-75
2022/06/13 07:28:38;;;;;;;;;;;12.50;99.90;;;;;;4992818;28;19918;-75
2022/06/13 07:31:04;;;;;;;;;;;12.50;99.90;;;;;;4992323;28;19909;-76
2022/06/13 07:33:31;;;;;;;;;;;12.40;99.90;;;;;;4991918;28;20452;-76
2022/06/13 07:35:58;;;;;;;;;;;12.40;99.90;;;;;;4992551;28;19957;-76
2022/06/13 07:38:24;;;;;;;;;;;12.40;99.90;;;;;;4992488;28;19988;-75
2022/06/13 07:40:53;;;;;;;;;;;12.30;99.90;;;;;;4992667;28;19914;-76
2022/06/13 07:43:40;;;;;;;;;;;12.30;99.90;;;;;;4992524;28;19997;-77
2022/06/13 07:46:07;;;;;;;;;;;12.20;99.90;;;;;;4991787;28;19937;-76
2022/06/13 07:48:34;;;;;;;;;;;12.20;99.90;;;;;;4991776;28;19922;-77
2022/06/13 07:51:02;;;;;;;;;;;12.20;99.90;;;;;;4992597;28;20016;-78
2022/06/13 07:53:28;;;;;;;;;;;12.20;99.90;;;;;;4990875;28;20199;-77
2022/06/13 07:55:55;;;;;;;;;;;12.20;99.90;;;;;;4992162;28;20008;-78
2022/06/13 07:58:26;;;;;;;;;;;12.10;99.90;;;;;;4991989;28;19910;-76
2022/06/13 08:00:53;;;;;;;;;;;12.10;99.90;;;;;;4992962;28;19910;-76
2022/06/13 08:03:23;;;;;;;;;;;12.10;99.90;;;;;;4991776;28;19990;-76
2022/06/13 08:05:51;;;;;;;;;;;12.10;99.90;;;;;;4992362;28;19914;-76
2022/06/13 08:08:18;;;;;;;;;;;12.00;99.90;;;;;;4992324;28;19928;-76
2022/06/13 08:10:45;;;;;;;;;;;12.00;99.90;;;;;;4991922;28;19914;-77
2022/06/13 08:13:16;;;;;;;;;;;12.00;99.90;;;;;;4992342;28;19921;-76
2022/06/13 08:15:43;;;;;;;;;;;12.00;99.90;;;;;;4992133;28;19914;-74
2022/06/13 08:18:10;;;;;;;;;;;11.90;99.90;;;;;;4991052;28;19929;-75
2022/06/13 08:20:38;;;;;;;;;;;11.90;99.90;;;;;;4991846;28;19909;-77
2022/06/13 08:23:08;;;;;;;;;;;11.90;99.90;;;;;;4991530;28;19910;-75
2022/06/13 08:25:36;;;;;;;;;;;11.90;99.90;;;;;;4991514;28;20340;-75
2022/06/13 08:28:06;;;;;;;;;;;11.90;99.90;;;;;;4990981;28;20039;-76
2022/06/13 08:30:53;;;;;;;;;;;11.90;99.90;;;;;;4992212;28;19972;-77
2022/06/13 08:33:23;;;;;;;;;;;11.90;99.90;;;;;;4991674;28;20357;-75
2022/06/13 08:35:50;;;;;;;;;;;11.90;99.90;;;;;;4991862;28;19914;-74
2022/06/13 08:38:18;;;;;;;;;;;11.80;99.90;;;;;;4991952;28;19917;-77
2022/06/13 08:41:02;;;;;;;;;;;11.80;99.90;;;;;;5006906;28;19910;-74
2022/06/13 08:43:39;;;;;;;;;;;;;;;;;;;;;
2022/06/13 08:46:22;;;;;;;;;;;11.70;99.90;;;;;;4991630;28;20288;-73
2022/06/13 08:48:51;;;;;;;;;;;11.70;99.90;;;;;;4991605;28;19926;-74
2022/06/13 08:51:23;;;;;;;;;;;11.70;99.90;;;;;;5006745;28;20361;-76
2022/06/13 08:53:49;;;;;;;;;;;11.70;99.90;;;;;;4991729;28;19973;-74
2022/06/13 08:56:17;;;;;;;;;;;11.70;99.90;;;;;;4991571;28;19914;-74
2022/06/13 08:59:22;;;;;;;;;;;11.60;99.90;;;;;;4991820;28;19914;-74
2022/06/13 09:02:09;;;;;;;;;;;11.60;99.90;;;;;;5006914;28;19910;-76
2022/06/13 09:04:46;;;;;;;;;;;11.60;99.90;;;;;;4983974;28;19917;-75
2022/06/13 09:07:18;;;;;;;;;;;11.50;99.90;;;;;;4993843;28;19957;-76
2022/06/13 09:09:52;;;;;;;;;;;11.50;99.90;;;;;;4993362;28;20001;-77
2022/06/13 09:12:46;;;;;;;;;;;11.50;99.90;;;;;;4993836;28;19941;-77
2022/06/13 09:15:17;;;;;;;;;;;11.50;99.90;;;;;;4993688;28;20037;-78
2022/06/13 09:18:23;;;;;;;;;;;11.50;99.90;;;;;;4993157;28;19910;-78
2022/06/13 09:21:01;;;;;;;;;;;11.50;99.90;;;;;;4952819;28;20001;-77
2022/06/13 09:23:37;;;;;;;;;;;11.40;99.90;;;;;;4952696;29;19946;-76
2022/06/13 09:26:30;;;;;;;;;;;11.40;99.90;;;;;;4978214;28;19910;-78
2022/06/13 09:29:15;;;;;;;;;;;11.40;99.90;;;;;;4990173;28;19918;-73
2022/06/13 09:31:46;;;;;;;;;;;11.40;99.90;;;;;;5001270;28;20016;-77
2022/06/13 09:34:16;;;;;;;;;;;11.40;99.90;;;;;;4993668;28;19959;-77
2022/06/13 09:37:06;;;;;;;;;;;11.40;99.90;;;;;;4994181;28;19993;-78
2022/06/13 09:39:33;;;;;;;;;;;11.40;99.90;;;;;;4991092;28;19909;-78
2022/06/13 09:41:59;;;;;;;;;;;11.40;99.90;;;;;;4994304;28;19914;-79
2022/06/13 09:44:38;;;;;;;;;;;11.30;99.90;;;;;;4993780;28;19989;-78
2022/06/13 09:47:10;;;;;;;;;;;11.20;99.90;;;;;;4993566;28;20372;-79
2022/06/13 09:49:54;;;;;;;;;;;11.20;99.90;;;;;;4993825;28;19914;-76
2022/06/13 09:52:41;;;;;;;;;;;11.20;99.90;;;;;;4993846;28;19961;-78
2022/06/13 09:55:22;;;;;;;;;;;11.20;99.90;;;;;;4999544;28;19914;-77
2022/06/13 09:57:54;;;;;;;;;;;11.20;99.90;;;;;;4993701;28;19997;-79
2022/06/13 10:00:24;;;;;;;;;;;11.30;99.90;;;;;;4994050;28;19910;-77
2022/06/13 10:03:03;;;;;;;;;;;11.20;99.90;;;;;;4992599;28;20213;-75
2022/06/13 10:05:34;;;;;;;;;;;11.20;99.90;;;;;;4993854;28;20013;-76
2022/06/13 10:08:07;;;;;;;;;;;11.30;99.90;;;;;;4993750;28;19918;-76
2022/06/13 10:10:45;;;;;;;;;;;11.30;99.90;;;;;;4993417;28;19910;-75
2022/06/13 10:13:27;;;;;;;;;;;11.30;99.90;;;;;;4993848;28;19911;-76
2022/06/13 10:16:00;;;;;;;;;;;11.30;99.90;;;;;;4993702;28;19956;-75
2022/06/13 10:18:26;;;;;;;;;;;11.30;99.90;;;;;;4993113;28;19917;-76
2022/06/13 10:20:57;;;;;;;;;;;11.20;99.90;;;;;;4993688;28;20004;-76
2022/06/13 10:23:31;;;;;;;;;;;11.20;99.90;;;;;;4993358;28;19997;-75
2022/06/13 10:26:16;;;;;;;;;;;11.20;99.90;;;;;;4993569;28;19960;-77
2022/06/13 10:28:43;;;;;;;;;;;11.20;99.90;;;;;;4993717;28;19930;-76
2022/06/13 10:31:10;;;;;;;;;;;11.20;99.90;;;;;;4993626;28;20025;-76
2022/06/13 10:33:39;;;;;;;;;;;11.20;99.90;;;;;;4993306;28;19988;-77
2022/06/13 10:36:09;;;;;;;;;;;11.10;99.90;;;;;;4993179;28;19918;-76
2022/06/13 10:38:42;;;;;;;;;;;11.20;99.90;;;;;;4993295;28;19914;-77
2022/06/13 10:41:09;;;;;;;;;;;11.10;99.90;;;;;;4993194;28;20304;-77
2022/06/13 10:43:37;;;;;;;;;;;11.10;99.90;;;;;;4992662;28;19935;-77
2022/06/13 10:46:05;;;;;;;;;;;11.20;99.90;;;;;;4992524;28;20215;-78
2022/06/13 10:48:39;;;;;;;;;;;11.20;99.90;;;;;;4992215;28;20309;-78
2022/06/13 10:51:06;;;;;;;;;;;11.10;99.90;;;;;;4993133;28;19964;-78
2022/06/13 10:53:33;;;;;;;;;;;11.20;99.90;;;;;;4992413;28;19988;-76
2022/06/13 10:56:02;;;;;;;;;;;11.20;99.90;;;;;;4992788;28;20348;-76
2022/06/13 10:58:33;;;;;;;;;;;11.10;99.90;;;;;;4992921;28;20195;-75
2022/06/13 11:01:02;;;;;;;;;;;11.10;99.90;;;;;;4992576;28;19917;-77
2022/06/13 11:03:29;;;;;;;;;;;11.10;99.90;;;;;;4992471;28;19925;-76
2022/06/13 11:05:59;;;;;;;;;;;11.10;99.90;;;;;;4992932;28;19914;-76
2022/06/13 11:08:27;;;;;;;;;;;11.10;99.90;;;;;;4992687;28;19941;-76
2022/06/13 11:11:02;;;;;;;;;;;11.10;99.90;;;;;;4992357;28;20365;-77
2022/06/13 11:13:36;;;;;;;;;;;11.10;99.90;;;;;;4992469;28;19937;-76
2022/06/13 11:24:47;;;;;;;;;;;11.00;99.90;;;;;;4992474;28;19921;-75
2022/06/13 11:27:42;;;;;;;;;;;11.00;99.90;;;;;;4991865;28;19937;-75
2022/06/13 11:30:30;;;;;;;;;;;11.00;99.90;;;;;;4992779;28;19945;-77
2022/06/13 11:32:57;;;;;;;;;;;11.00;99.90;;;;;;4991770;28;20518;-75
2022/06/13 11:35:32;;;;;;;;;;;11.00;99.90;;;;;;4992330;28;20288;-77
2022/06/13 11:38:17;;;;;;;;;;;10.90;99.90;;;;;;4992179;28;19920;-74
2022/06/13 11:40:59;;;;;;;;;;;10.90;99.90;;;;;;4991673;28;20313;-76
2022/06/13 11:43:41;;;;;;;;;;;11.00;99.90;;;;;;4992262;28;19917;-74
2022/06/13 11:46:28;;;;;;;;;;;10.90;99.90;;;;;;4991379;28;19914;-76
2022/06/13 11:48:56;;;;;;;;;;;11.00;99.90;;;;;;4991987;28;19925;-76
2022/06/13 11:51:24;;;;;;;;;;;10.90;99.90;;;;;;4991807;28;19909;-78
2022/06/13 11:53:53;;;;;;;;;;;10.90;99.90;;;;;;4991040;28;19926;-78
2022/06/13 11:56:28;;;;;;;;;;;10.90;99.90;;;;;;4991281;28;20423;-77
2022/06/13 11:58:56;;;;;;;;;;;10.90;99.90;;;;;;4992223;28;20392;-74
2022/06/13 12:01:26;;;;;;;;;;;10.90;99.90;;;;;;4991372;28;20320;-77
2022/06/13 12:04:16;;;;;;;;;;;10.90;99.90;;;;;;4991449;28;20008;-73
2022/06/13 12:06:46;;;;;;;;;;;10.90;99.90;;;;;;4991537;28;20372;-74
2022/06/13 12:09:14;;;;;;;;;;;10.90;99.90;;;;;;4991499;28;19925;-74
2022/06/13 12:11:43;;;;;;;;;;;10.90;99.90;;;;;;4991512;28;20349;-73
2022/06/13 12:14:09;;;;;;;;;;;10.90;99.90;;;;;;4991528;28;19914;-74
2022/06/13 12:16:56;;;;;;;;;;;10.90;99.90;;;;;;4990903;28;19949;-74
2022/06/13 12:19:33;;;;;;;;;;;10.90;99.90;;;;;;4987135;28;20288;-76
2022/06/13 12:22:09;;;;;;;;;;;10.90;99.90;;;;;;4991691;28;20235;-76
2022/06/13 12:24:56;;;;;;;;;;;10.90;99.90;;;;;;4991342;28;20369;-73
2022/06/13 12:27:41;;;;;;;;;;;10.90;99.90;;;;;;4987418;28;19917;-75
2022/06/13 12:30:10;;;;;;;;;;;10.80;99.90;;;;;;4991372;28;19914;-76
2022/06/13 12:32:40;;;;;;;;;;;10.80;99.90;;;;;;4990685;28;20342;-76
2022/06/13 12:35:25;;;;;;;;;;;10.80;99.90;;;;;;4991318;28;19932;-76
2022/06/13 12:37:57;;;;;;;;;;;10.80;99.90;;;;;;4991607;28;19989;-77
2022/06/13 12:40:36;;;;;;;;;;;10.80;99.90;;;;;;4991575;28;19910;-76
2022/06/13 12:43:25;;;;;;;;;;;10.70;99.90;;;;;;4991455;28;19910;-77
2022/06/13 12:46:10;;;;;;;;;;;10.80;99.90;;;;;;4990713;28;19914;-76
2022/06/13 12:48:56;;;;;;;;;;;10.80;99.90;;;;;;4991409;28;19918;-73
2022/06/13 12:51:22;;;;;;;;;;;10.80;99.90;;;;;;4991436;28;19913;-74
2022/06/13 12:53:55;;;;;;;;;;;10.70;99.90;;;;;;4990590;28;19926;-77
2022/06/13 12:56:29;;;;;;;;;;;10.80;99.90;;;;;;5029276;28;19964;-78
2022/06/13 12:58:55;;;;;;;;;;;10.80;99.90;;;;;;5031117;28;20420;-78
2022/06/13 13:01:26;;;;;;;;;;;10.80;99.90;;;;;;5031524;28;19917;-77
2022/06/13 13:03:53;;;;;;;;;;;10.80;99.90;;;;;;5031327;28;19960;-77
2022/06/13 13:06:31;;;;;;;;;;;10.80;99.90;;;;;;5032040;28;19917;-78
2022/06/13 13:09:05;;;;;;;;;;;10.80;99.90;;;;;;5038895;28;20275;-74
2022/06/13 13:11:33;;;;;;;;;;;10.80;99.90;;;;;;5017960;28;20491;-75
2022/06/13 13:14:25;;;;;;;;;;;10.80;99.90;;;;;;5035598;28;19956;-77
2022/06/13 13:16:52;;;;;;;;;;;10.80;99.90;;;;;;5017413;28;19909;-73
2022/06/13 13:19:19;;;;;;;;;;;10.80;99.90;;;;;;5035179;28;20330;-73
2022/06/13 13:21:55;;;;;;;;;;;10.70;99.90;;;;;;5034965;28;19916;-73
2022/06/13 13:24:24;;;;;;;;;;;10.70;99.90;;;;;;5034892;28;19944;-74
2022/06/13 13:27:02;;;;;;;;;;;10.60;99.90;;;;;;5034432;28;20386;-73
2022/06/13 13:29:35;;;;;;;;;;;10.40;99.90;;;;;;5034935;28;20129;-73
2022/06/13 13:32:13;;;;;;;;;;;10.30;99.90;;;;;;5034840;28;19954;-73
2022/06/13 13:34:42;;;;;;;;;;;10.20;99.90;;;;;;5034858;28;19920;-74
2022/06/13 13:37:27;;;;;;;;;;;10.20;99.90;;;;;;5034735;28;20267;-73
2022/06/13 13:40:00;;;;;;;;;;;10.20;99.90;;;;;;5033858;28;19913;-73
2022/06/13 13:42:41;;;;;;;;;;;10.20;99.90;;;;;;5034590;28;19920;-74
2022/06/13 13:45:17;;;;;;;;;;;10.10;99.90;;;;;;5034454;28;20012;-77
2022/06/13 13:47:48;;;;;;;;;;;10.00;99.90;;;;;;5034361;28;19913;-77
2022/06/13 13:50:15;;;;;;;;;;;10.00;99.90;;;;;;5034647;28;19917;-76
2022/06/13 13:52:43;;;;;;;;;;;10.00;99.90;;;;;;5033674;28;19921;-77
2022/06/13 13:55:24;;;;;;;;;;;10.00;99.90;;;;;;5034215;28;19951;-73
2022/06/13 13:57:54;;;;;;;;;;;10.00;99.90;;;;;;5034090;28;20383;-75
2022/06/13 14:00:20;;;;;;;;;;;9.90;99.90;;;;;;5034196;28;19909;-77
2022/06/13 14:03:16;;;;;;;;;;;9.90;99.90;;;;;;5034200;28;19909;-77
2022/06/13 14:05:58;;;;;;;;;;;9.90;99.90;;;;;;5028803;28;20015;-76
2022/06/13 14:08:26;;;;;;;;;;;9.80;99.90;;;;;;5033892;28;19936;-74
2022/06/13 14:10:57;;;;;;;;;;;9.80;99.90;;;;;;5034027;28;19909;-75
2022/06/13 14:13:29;;;;;;;;;;;9.70;99.90;;;;;;5034103;28;20588;-74
2022/06/13 14:15:56;;;;;;;;;;;9.70;99.90;;;;;;5033971;28;19928;-74
2022/06/13 14:18:50;;;;;;;;;;;9.70;99.90;;;;;;5032937;28;19959;-74
2022/06/13 14:21:20;;;;;;;;;;;9.70;99.90;;;;;;5025400;28;19909;-73
2022/06/13 14:23:49;;;;;;;;;;;9.70;99.90;;;;;;5032085;28;19910;-73
2022/06/13 14:26:32;;;;;;;;;;;9.70;99.90;;;;;;5034051;28;19916;-75
2022/06/13 14:29:03;;;;;;;;;;;9.60;99.90;;;;;;5033823;28;20012;-75
2022/06/13 14:31:29;;;;;;;;;;;9.70;99.90;;;;;;5033429;28;19955;-75
2022/06/13 14:36:52;;;;;;;;;;;9.70;99.90;;;;;;5036079;28;19932;-74
2022/06/13 14:39:19;;;;;;;;;;;9.70;99.90;;;;;;5035397;28;19946;-77
2022/06/13 14:41:47;;;;;;;;;;;9.70;99.90;;;;;;5035460;28;19917;-76
2022/06/13 14:44:21;;;;;;;;;;;9.70;99.90;;;;;;5035520;28;19916;-78
2022/06/13 14:46:54;;;;;;;;;;;9.70;99.90;;;;;;5035608;28;19968;-76
2022/06/13 14:49:20;;;;;;;;;;;9.70;99.90;;;;;;5035366;28;19917;-77
2022/06/13 14:52:05;;;;;;;;;;;9.70;99.90;;;;;;5035037;28;19988;-77
2022/06/13 14:54:38;;;;;;;;;;;9.70;99.90;;;;;;5035197;28;19917;-78
2022/06/13 14:57:30;;;;;;;;;;;9.70;99.90;;;;;;5035267;28;19917;-77
2022/06/13 15:00:09;;;;;;;;;;;9.70;99.90;;;;;;5026766;28;19909;-78
2022/06/13 15:03:02;;;;;;;;;;;9.70;99.90;;;;;;5035258;28;19909;-78
2022/06/13 15:05:31;;;;;;;;;;;9.60;99.90;;;;;;5032161;28;19966;-77
2022/06/13 15:08:08;;;;;;;;;;;9.60;99.90;;;;;;5035101;28;19917;-77
2022/06/13 15:10:36;;;;;;;;;;;9.60;99.90;;;;;;5035227;28;19913;-77
2022/06/13 15:13:04;;;;;;;;;;;9.60;99.90;;;;;;5034891;28;19909;-78